x

East Hatteras - 150 Nm East Of Cape Hatteras (41001) Weather Station

5:40pm - Tue 25th Apr 2017 All times are EDT. -4 hours from GMT.

  • Wind
    20mph, 25mph gusts
  • Sea Temp 71°f
  • 空気 Temp 72°f
  • Sea Pressure 1006.1mb
  • East Hatteras - 150 Nm East Of Cape Hatteras
  • East Hatteras - 150 Nm East Of Cape Hatteras

More Historic Weather Station data

Upgrade to MSW Pro to gain access to the past 30 days of data for over 8000 Wavebouys and Weather Stations around the globe.

Join Pro

Comparision Forecast

View Surf forecast
   
Tue 04/25 5:40pm  -   -   -  20 25 mph 1006.1mb 71f 72f
5:30pm  -   -   -  20 29 mph 1006mb 71f 72f
5:20pm  -   -   -  20 27 mph 1006mb 71f 72f
5:10pm  -   -   -  20 27 mph 1006mb 71f 72f
5:00pm  -   -   -  20 27 mph 1006mb 71f 72f
4:50pm 9.5ft 10s 7s 20 27 mph 1006.1mb 71f 72f
4:40pm  -   -   -  20 25 mph 1006.1mb 71f 72f
4:30pm  -   -   -  20 27 mph 1006mb 71f 71f
4:20pm  -   -   -  20 25 mph 1006.1mb 71f 71f
4:10pm  -   -   -  20 27 mph 1006.1mb 71f 71f
4:00pm  -   -   -  20 27 mph 1006mb 71f 71f
3:50pm 9.5ft 10s 7s 18 22 mph 1006.5mb 71f 71f
3:40pm 9.5ft  -  7s 18 25 mph 1006.8mb 71f 70f
3:30pm  -   -   -  20 25 mph 1006.9mb 71f 70f
3:20pm  -   -   -  18 22 mph 1006.8mb 71f 70f
3:10pm  -   -   -  18 22 mph 1006.6mb 71f 69f
3:00pm  -   -   -  18 25 mph 1006.6mb 71f 69f
2:50pm 10ft 10s 7s 18 22 mph 1006.9mb 71f 69f
2:40pm 10ft  -  7s 18 22 mph 1006.9mb 71f 69f
2:30pm  -   -   -  16 20 mph 1006.9mb 71f 69f
2:20pm  -   -   -  16 20 mph 1006.9mb 71f 69f
2:10pm  -   -   -  20 27 mph 1006.9mb 71f 69f
2:00pm  -   -   -  20 27 mph 1007.1mb 71f 69f
1:50pm 10ft 10s 6s 22 29 mph 1007.4mb 71f 69f
1:40pm 10ft  -  6s 22 29 mph 1007.3mb 71f 68f
1:30pm  -   -   -  27 40 mph 1007.4mb 71f 68f
1:20pm  -   -   -  29 58 mph 1007.1mb 71f 72f
1:10pm  -   -   -  27 31 mph 1006.5mb 71f 72f
1:00pm  -   -   -  25 31 mph 1006.6mb 71f 72f
12:50pm 10ft 10s 7s 25 31 mph 1007mb 71f 72f
12:40pm  -   -   -  25 31 mph 1007.3mb 71f 72f
12:30pm  -   -   -  25 34 mph 1007.4mb 71f 72f
12:20pm  -   -   -  27 31 mph 1007.4mb 71f 72f
12:10pm  -   -   -  25 31 mph 1007.5mb 71f 72f
12:00pm  -   -   -  27 34 mph 1007.5mb 71f 72f
11:50am 11.5ft 9s 7s 27 34 mph 1007.8mb 71f 72f
11:40am 11.5ft  -  7s 27 34 mph 1007.5mb 71f 72f
11:30am  -   -   -  25 31 mph 1007.3mb 71f 72f
11:20am  -   -   -  25 31 mph 1007.5mb 71f 72f
11:10am  -   -   -  22 29 mph 1007.5mb 71f 72f
11:00am  -   -   -  22 31 mph 1007.9mb 71f 72f
10:50am 11ft 10s 7s 22 29 mph 1007.9mb 71f 72f
10:40am 11ft  -  7s 22 29 mph 1007.8mb 71f 72f
10:30am  -   -   -  22 29 mph 1007.9mb 71f 73f
10:20am  -   -   -  22 29 mph 1007.9mb 71f 72f
10:10am  -   -   -  22 31 mph 1007.9mb 71f 72f
10:00am  -   -   -  22 31 mph 1007.9mb 71f 72f
9:50am 12.5ft 10s 7s 22 29 mph 1008mb 71f 72f
9:40am 12.5ft  -  7s 22 27 mph 1008mb 71f 72f
9:30am  -   -   -  22 27 mph 1008mb 71f 72f
9:20am  -   -   -  22 29 mph 1008mb 71f 72f
9:10am  -   -   -  22 29 mph 1008mb 71f 72f
9:00am  -   -   -  22 29 mph 1007.9mb - 72f
8:50am 15ft 11s 8s 22 27 mph 1007.6mb 71f 72f
8:40am  -   -   -  20 27 mph 1007.6mb 71f 72f
8:30am  -   -   -  20 27 mph 1007.6mb 71f 72f
8:20am  -   -   -  20 27 mph 1007.8mb 71f 72f
8:10am  -   -   -  22 29 mph 1007.5mb 71f 72f
8:00am  -   -   -  22 29 mph 1007.5mb 71f 72f
7:50am 15.5ft 11s 8s 22 29 mph 1007.3mb 71f 72f
7:40am 15.5ft  -  8s 22 29 mph 1007.4mb 71f 72f
7:30am  -   -   -  22 29 mph 1007.4mb 71f 72f
7:20am  -   -   -  22 29 mph 1007.3mb 71f 72f
7:10am  -   -   -  22 29 mph 1007.1mb 71f 72f
7:00am  -   -   -  20 29 mph 1007.1mb 71f 72f
6:50am 15ft 11s 8s 22 29 mph 1007mb 71f 72f
6:40am 15ft  -  8s 22 29 mph 1007mb 71f 71f
6:30am  -   -   -  22 29 mph 1007mb 71f 71f
6:20am  -   -   -  25 34 mph 1007mb 71f 71f
6:10am  -   -   -  25 31 mph 1006.8mb 71f 71f
6:00am  -   -   -  27 36 mph 1006.6mb 71f 71f
5:50am 15.5ft 10s 8s 27 34 mph 1006.8mb 71f 71f
5:40am 15.5ft  -  8s 27 36 mph 1006.6mb 71f 71f
5:30am  -   -   -  29 36 mph 1006.5mb 71f 71f
5:20am  -   -   -  29 40 mph 1006.5mb 71f 71f
5:10am  -   -   -  29 38 mph 1006.3mb 71f 71f
5:00am  -   -   -  29 38 mph 1006.5mb 71f 71f
4:50am 16.5ft  -  8s 31 40 mph 1006.5mb - 70f
4:40am 16.5ft 10s 8s  -  mph - 71f -
4:30am  -   -   -  31 43 mph 1006.5mb 71f 70f
4:20am  -   -   -  29 38 mph 1006.5mb 71f 70f
4:10am  -   -   -  31 38 mph 1006.8mb 71f 69f
4:00am  -   -   -  34 43 mph 1006.8mb 71f 69f
3:50am 16ft 9s 7s 34 43 mph 1006.8mb 71f 69f
3:40am  -   -   -  34 43 mph 1006.5mb 71f 69f
3:30am  -   -   -  34 45 mph 1007mb 71f 69f
3:20am  -   -   -  34 43 mph 1006.9mb 71f 69f
3:10am  -   -   -  36 47 mph 1006.8mb 71f 69f
3:00am  -   -   -  38 47 mph 1006.6mb 71f 69f
2:50am 13.5ft 8s 7s 36 49 mph 1007mb 71f 69f
2:40am 13.5ft  -  7s 36 45 mph 1007mb 71f 69f
2:30am  -   -   -  36 47 mph 1007.4mb 71f 68f
2:20am  -   -   -  38 49 mph 1007.4mb 71f 68f
2:10am  -   -   -  38 49 mph 1007.5mb 71f 67f
2:00am  -   -   -  36 47 mph 1007.6mb 71f 67f
1:50am 12.5ft 8s 6s 36 45 mph 1008mb 71f 67f
1:40am 12.5ft  -  6s 34 40 mph 1008.3mb 71f 66f
1:30am  -   -   -  36 51 mph 1008.5mb 71f 65f
1:20am  -   -   -  36 45 mph 1008.5mb 71f 67f
1:10am  -   -   -  38 47 mph 1008.4mb 71f 67f
1:00am  -   -   -  38 47 mph 1008.9mb 71f 67f
12:50am 12.5ft 7s 6s 36 47 mph 1009mb 71f 68f
12:40am  -   -   -  36 45 mph 1009.4mb - 69f
12:30am  -   -   -  34 45 mph 1009.5mb 71f 70f
12:20am  -   -   -  34 45 mph 1009.4mb 71f 71f
12:10am  -   -   -  36 47 mph 1009.1mb 71f 71f
12:00am  -   -   -  36 45 mph 1008.5mb 71f 71f
Mon 04/24 11:50pm 12ft 8s 6s 38 49 mph 1009mb 71f 71f
11:40pm 12ft  -  6s 38 49 mph 1008.6mb 71f 71f
11:30pm  -   -   -  38 47 mph 1008.5mb 71f 70f
11:20pm  -   -   -  38 49 mph 1008.5mb 71f 70f
11:10pm  -   -   -  38 47 mph 1009mb 71f 70f
11:00pm  -   -   -  36 45 mph 1009.1mb 71f 70f
10:50pm 11ft 8s 6s 36 47 mph 1009.3mb 71f 70f
10:40pm  -   -   -  36 49 mph 1009mb 71f 71f
10:30pm  -   -   -  36 45 mph 1009mb 71f 71f
10:20pm  -   -   -  31 40 mph 1009.4mb 71f 71f
10:10pm  -   -   -  34 43 mph 1009.6mb 71f 71f
10:00pm  -   -   -  36 47 mph 1009.4mb 71f 71f
9:50pm 9.5ft 7s 6s 36 45 mph 1009.5mb 71f 71f
9:40pm  -   -   -  36 49 mph 1009.8mb 71f 70f
9:30pm  -   -   -  36 47 mph 1009.6mb 71f 70f
9:20pm  -   -   -  38 47 mph 1009.6mb 71f 70f
9:10pm  -   -   -  38 49 mph 1009.9mb 71f 70f
9:00pm  -   -   -  40 49 mph 1008.4mb 71f 70f
8:50pm 9ft 7s 6s 34 43 mph 1009.8mb 71f 70f
8:40pm 9ft  -  6s 31 38 mph 1010.9mb 71f 70f
8:30pm  -   -   -  31 40 mph 1010.9mb 71f 70f
8:20pm  -   -   -  34 40 mph 1010.8mb 71f 70f
8:10pm  -   -   -  34 40 mph 1010.9mb 71f 70f
8:00pm  -   -   -  31 43 mph 1011mb 71f 70f
7:50pm 7ft 7s 5s 31 40 mph 1010.9mb 71f 70f
7:40pm  -   -   -  31 38 mph 1010.6mb 71f 71f
7:20pm  -   -   -  27 34 mph 1011.4mb 71f 71f
7:10pm  -   -   -  27 34 mph 1011.4mb 71f 71f
7:00pm  -   -   -  25 31 mph 1011.4mb 71f 71f
6:50pm 7ft 6s 5s 25 34 mph 1011.4mb 71f 71f
6:40pm  -   -   -  25 31 mph 1011.5mb 71f 71f
6:30pm  -   -   -  25 29 mph 1011.6mb 71f 71f
6:20pm  -   -   -  25 31 mph 1011.9mb 71f 71f
6:10pm  -   -   -  25 29 mph 1012mb 71f 71f
6:00pm  -   -   -  22 29 mph 1012.1mb 71f 71f
5:50pm 7ft 6s 5s 25 29 mph 1012.4mb 71f 71f
5:40pm 7ft  -  5s 25 31 mph 1012.5mb 71f 71f
5:30pm  -   -   -  22 29 mph 1012.5mb 71f 71f
5:20pm  -   -   -  25 31 mph 1012.5mb 71f 71f
5:10pm  -   -   -  22 29 mph 1012.5mb 71f 71f
5:00pm  -   -   -  22 27 mph 1012.3mb 71f 71f
4:50pm 7ft 7s 5s 22 27 mph 1012.3mb 71f 71f
4:40pm 7ft  -  5s 22 27 mph 1012.1mb 71f 71f
4:30pm  -   -   -  22 29 mph 1012.1mb 71f 71f
4:20pm  -   -   -  25 29 mph 1012.3mb 71f 71f
4:10pm  -   -   -  25 31 mph 1012.6mb 71f 71f
4:00pm  -   -   -  25 29 mph 1012.8mb 71f 71f
3:50pm 7ft 6s 5s 25 31 mph 1012.8mb 71f 71f
3:40pm 7ft  -  5s 25 31 mph 1012.8mb 72f 71f
3:30pm  -   -   -  25 31 mph 1013mb 72f 71f
3:20pm  -   -   -  25 31 mph 1013mb 72f 71f
3:10pm  -   -   -  27 34 mph 1013mb 72f 71f
3:00pm  -   -   -  27 34 mph 1013.1mb 72f 71f
2:50pm 6ft 6s 5s 25 29 mph 1013.5mb 72f 71f
2:40pm 6ft  -  5s 27 34 mph 1013.4mb 72f 71f
2:30pm  -   -   -  25 29 mph 1013.5mb 72f 71f
2:20pm  -   -   -  22 29 mph 1013.8mb 72f 71f
2:10pm  -   -   -  25 29 mph 1014mb 72f 71f
2:00pm  -   -   -  25 31 mph 1014mb 72f 71f
1:50pm 6ft 6s 5s 25 29 mph 1014.1mb 72f 71f
1:40pm  -   -   -  22 31 mph 1014.4mb 72f 71f
1:30pm  -   -   -  25 29 mph 1014.4mb 72f 71f
1:20pm  -   -   -  22 29 mph 1014.5mb 72f 71f
1:10pm  -   -   -  25 29 mph 1014.6mb 72f 72f
1:00pm  -   -   -  22 29 mph 1014.6mb 72f 72f
12:50pm 5.5ft 5s 5s 25 29 mph 1014.6mb 72f 72f
12:40pm 5.5ft  -  5s 25 29 mph 1014.6mb 72f 72f
12:30pm  -   -   -  22 29 mph 1014.9mb 72f 72f
12:20pm  -   -   -  25 29 mph 1014.8mb 72f 72f
12:10pm  -   -   -  22 27 mph 1014.8mb 72f 72f
12:00pm  -   -   -  22 27 mph 1015mb 72f 71f
11:50am 5.5ft 6s 5s 20 27 mph 1015mb 72f 72f
11:40am 5.5ft  -  5s 22 29 mph 1015mb 72f 71f
11:30am  -   -   -  20 25 mph 1015.1mb 72f 71f
11:20am  -   -   -  22 27 mph 1015.1mb 72f 71f
11:10am  -   -   -  20 27 mph 1015.4mb 72f 71f
11:00am  -   -   -  22 27 mph 1015.3mb 72f 71f
10:50am 5.5ft 11s 5s 20 25 mph 1015.3mb 72f 71f
10:40am  -   -   -  20 25 mph 1015.4mb 72f 71f
10:30am  -   -   -  20 25 mph 1015.4mb 72f 71f
10:20am  -   -   -  20 25 mph 1015.5mb 72f 71f
10:10am  -   -   -  20 25 mph 1015.5mb 72f 71f
10:00am  -   -   -  18 25 mph 1015.5mb 72f 71f
9:50am 5.5ft 11s 5s 18 22 mph 1015.5mb 72f 71f
9:40am 5.5ft  -  5s 18 25 mph 1015.5mb 72f 71f
9:30am  -   -   -  20 25 mph 1015.6mb 72f 71f
9:20am  -   -   -  20 25 mph 1015.5mb 72f 71f
9:10am  -   -   -  18 22 mph 1015.5mb 72f 71f
9:00am  -   -   -  20 22 mph 1015.5mb 72f 71f
8:50am 5.5ft 12s 6s 18 22 mph 1015.5mb 72f 71f
8:40am  -   -   -  18 20 mph 1015.4mb 72f 71f
8:30am  -   -   -  18 22 mph 1015.4mb 72f 71f
8:20am  -   -   -  18 22 mph 1015.5mb 72f 71f
8:10am  -   -   -  18 20 mph 1015.4mb 72f 71f
8:00am  -   -   -  18 20 mph 1015.4mb 72f 71f
7:50am 5ft 11s 5s 16 20 mph 1015.4mb 72f 71f
7:40am 5ft  -  5s 16 20 mph 1015.3mb 72f 71f
7:30am  -   -   -  16 20 mph 1015.1mb 72f 71f
7:20am  -   -   -  16 20 mph 1015mb 72f 71f
7:10am  -   -   -  16 20 mph 1015mb 72f 71f
7:00am  -   -   -  16 20 mph 1014.9mb 72f 71f
6:50am 5ft 11s 6s 18 20 mph 1014.8mb 72f 71f
6:40am 5ft  -  6s 18 20 mph 1014.6mb 72f 71f
6:30am  -   -   -  18 22 mph 1014.5mb 72f 71f
6:20am  -   -   -  18 22 mph 1014.5mb 72f 71f
6:10am  -   -   -  18 22 mph 1014.4mb 72f 71f
6:00am  -   -   -  18 22 mph 1014.3mb 72f 71f
5:50am 4.5ft 11s 6s 18 22 mph 1014.3mb 72f 71f
5:40am  -   -   -  18 22 mph 1014.3mb 72f 71f
5:30am  -   -   -  18 22 mph 1014.1mb 72f 71f
5:20am  -   -   -  18 22 mph 1014.1mb 72f 71f
5:10am  -   -   -  18 22 mph 1014.1mb 72f 71f
5:00am  -   -   -  18 20 mph 1014mb 72f 71f
4:50am 5ft 11s 6s 18 20 mph 1014mb 72f 71f
4:40am 5ft  -  6s 16 20 mph 1014mb 72f 71f
4:30am  -   -   -  16 20 mph 1014mb 72f 71f
4:20am  -   -   -  16 20 mph 1014mb 72f 71f
4:10am  -   -   -  13 18 mph 1014.1mb 72f 71f
4:00am  -   -   -  13 20 mph 1014.3mb 72f 71f
3:50am 5ft 10s 6s 13 18 mph 1014.4mb 72f 71f
3:40am  -   -   -  13 18 mph 1014.4mb 71f 71f
3:30am  -   -   -  13 18 mph 1014.5mb 71f 71f
3:20am  -   -   -  13 16 mph 1014.5mb 71f 71f
3:10am  -   -   -  13 16 mph 1014.5mb 71f 71f
3:00am  -   -   -  11 16 mph 1014.6mb 71f 71f
2:50am 4.5ft 11s 6s 9 13 mph 1014.8mb 71f 71f
2:40am  -   -   -  9 11 mph 1014.9mb 71f 71f
2:30am  -   -   -  9 13 mph 1015mb 71f 71f
2:20am  -   -   -  11 13 mph 1015.1mb 71f 71f
2:10am  -   -   -  11 13 mph 1015.1mb 71f 71f
2:00am  -   -   -  11 16 mph 1015.3mb 71f 71f
1:50am 5ft 11s 6s 11 16 mph 1015.3mb 71f 71f
1:40am 5ft  -  6s 13 16 mph 1015.3mb 71f 71f
1:30am  -   -   -  13 16 mph 1015.5mb 71f 71f
1:20am  -   -   -  13 16 mph 1015.5mb 71f 71f
1:10am  -   -   -  13 18 mph 1015.8mb 71f 71f
1:00am  -   -   -  13 18 mph 1015.8mb 71f 71f
12:50am 5ft 11s 6s 13 18 mph 1015.9mb 71f 71f
12:40am 5ft  -  6s 13 18 mph 1015.9mb 71f 71f
12:30am  -   -   -  13 18 mph 1015.9mb 71f 71f
12:20am  -   -   -  13 18 mph 1015.9mb 72f 71f
12:10am  -   -   -  13 18 mph 1015.8mb 72f 71f
12:00am  -   -   -  13 16 mph 1015.9mb 72f 71f
Sun 04/23 11:50pm 5ft 11s 6s 13 18 mph 1016mb 72f 71f
11:40pm 5ft  -  6s 13 18 mph 1016mb 72f 71f
11:30pm  -   -   -  13 18 mph 1016mb 72f 71f
11:20pm  -   -   -  13 16 mph 1016mb 72f 71f
11:10pm  -   -   -  11 16 mph 1016mb 72f 72f
11:00pm  -   -   -  11 16 mph 1015.9mb 72f 72f
10:50pm 6ft 11s 6s 11 16 mph 1016mb 72f 72f
10:40pm 6ft  -  6s 11 13 mph 1016mb 72f 72f
10:30pm  -   -   -  11 13 mph 1016mb 72f 72f
10:20pm  -   -   -  11 16 mph 1016mb 72f 72f
10:10pm  -   -   -  11 16 mph 1016mb 72f 72f
10:00pm  -   -   -  11 16 mph 1016mb 72f 72f
9:50pm 5.5ft 6s 6s 11 13 mph 1016mb 72f 72f
9:40pm  -   -   -  11 13 mph 1015.9mb 72f 72f
9:30pm  -   -   -  11 16 mph 1016mb - 72f
9:20pm  -   -   -  11 16 mph 1015.6mb - 72f
9:10pm  -   -   -  11 16 mph 1015.5mb 72f 72f
9:00pm  -   -   -  11 16 mph 1015.5mb 72f 72f
8:50pm 6ft 6s 6s 13 16 mph 1015.5mb 72f 72f
8:40pm 6ft  -  6s 11 16 mph 1015.3mb 72f 72f
8:30pm  -   -   -  13 18 mph 1015.3mb 72f 72f
8:20pm  -   -   -  13 18 mph 1015.1mb 72f 73f
8:10pm  -   -   -  13 18 mph 1015mb 72f 73f
8:00pm  -   -   -  13 18 mph 1015mb 72f 73f
7:50pm 6ft 7s 6s 13 18 mph 1014.6mb 72f 73f
7:40pm  -   -   -  13 18 mph 1014.5mb 72f 73f
7:30pm  -   -   -  13 20 mph 1014.5mb 72f 73f
7:20pm  -   -   -  13 18 mph 1014.5mb 72f 73f
7:10pm  -   -   -  13 18 mph 1014.4mb 72f 73f
7:00pm  -   -   -  13 18 mph 1014.3mb 72f 73f
6:50pm 6ft 7s 6s 16 20 mph 1014.3mb 72f 73f
6:40pm 6ft  -  6s 16 20 mph 1014.5mb 72f 73f
6:30pm  -   -   -  16 20 mph 1014.5mb 72f 73f
6:20pm  -   -   -  16 18 mph 1014.4mb 73f 73f
6:10pm  -   -   -  13 18 mph 1014.4mb 73f 73f
6:00pm  -   -   -  11 16 mph 1014.3mb 73f 74f
5:50pm 5.5ft 7s 6s 13 16 mph 1014.3mb 73f 73f
5:40pm  -   -   -  11 16 mph 1014.3mb 73f 74f
5:30pm  -   -   -  11 13 mph 1014mb 73f 74f
5:20pm  -   -   -  11 16 mph 1014mb 73f 74f
5:10pm  -   -   -  11 13 mph 1014mb 73f 74f
5:00pm  -   -   -  7 13 mph 1014mb 73f 74f
4:50pm 5.5ft 7s 6s 4 7 mph 1014mb 73f 73f
4:40pm  -   -   -  4 7 mph 1014mb 73f 73f
4:30pm  -   -   -  7 9 mph 1014mb 73f 73f
4:20pm  -   -   -  4 7 mph 1013.8mb 73f 73f
4:10pm  -   -   -  4 7 mph 1013.8mb 73f 73f
4:00pm  -   -   -  4 7 mph 1013.8mb 73f 73f
3:50pm 5ft 7s 6s 4 7 mph 1013.9mb 73f 73f
3:40pm 5ft  -  6s 7 9 mph 1013.9mb 72f 73f
3:30pm  -   -   -  7 9 mph 1014mb 73f 73f
3:20pm  -   -   -  4 9 mph 1014mb 72f 73f
3:10pm  -   -   -  7 9 mph 1014.1mb 72f 73f
3:00pm  -   -   -  7 9 mph 1014.3mb 73f 73f
2:50pm 5ft 11s 6s 7
mph
1014.3mb 72f 73f
2:40pm 5ft  -  6s 7 9 mph 1014.4mb 72f 73f
2:30pm  -   -   -  7 9 mph 1014.5mb 72f 73f
2:20pm  -   -   -  7 9 mph 1014.5mb 72f 73f
2:10pm  -   -   -  7 9 mph 1014.6mb 72f 73f
2:00pm  -   -   -  7 9 mph 1014.6mb 72f 73f
1:50pm 5.5ft 11s 6s 7 9 mph 1014.6mb 72f 73f
1:40pm 5.5ft  -  6s 7 9 mph 1014.8mb 72f 73f
1:30pm  -   -   -  7 9 mph 1014.8mb 72f 73f
1:20pm  -   -   -  7 9 mph 1014.9mb 72f 73f
1:10pm  -   -   -  7 9 mph 1015mb 72f 73f
1:00pm  -   -   -  7 9 mph 1015mb 72f 73f
12:50pm 5.5ft 11s 6s 7 11 mph 1015mb 72f 73f
12:40pm 5.5ft  -  6s 7 11 mph 1015mb 72f 72f
12:30pm  -   -   -  7 11 mph 1015.1mb 72f 72f
12:20pm  -   -   -  7 11 mph 1015.1mb 72f 72f
12:10pm  -   -   -  7 11 mph 1015.3mb 72f 72f
12:00pm  -   -   -  9 11 mph 1015.3mb 72f 72f
11:50am 6.5ft 7s 6s 9 13 mph 1015.3mb 72f 72f
11:40am  -   -   -  9 13 mph 1015.4mb 72f 72f
11:30am  -   -   -  11 13 mph 1015.5mb 71f 72f
11:20am  -   -   -  11 16 mph 1015.4mb 71f 72f
11:10am  -   -   -  11 16 mph 1015.3mb 71f 72f
11:00am  -   -   -  11 16 mph 1015.3mb 71f 72f
10:50am 6ft 11s 6s 11 13 mph 1015.1mb 71f 72f
10:40am 6ft  -  6s 9 13 mph 1015mb 71f 72f
10:30am  -   -   -  11 16 mph 1015mb 71f 72f
10:20am  -   -   -  11 16 mph 1015mb 71f 72f
10:10am  -   -   -  13 16 mph 1015mb 71f 72f
10:00am  -   -   -  13 18 mph 1014.9mb 71f 73f
9:50am 6.5ft 7s 6s 11 16 mph 1015mb 71f 73f
9:40am 6.5ft  -  6s 16 20 mph 1014.9mb 71f 73f
9:30am  -   -   -  13 18 mph 1014.9mb 71f 73f
9:20am  -   -   -  16 20 mph 1014.9mb 71f 73f
9:10am  -   -   -  16 20 mph 1014.9mb 71f 73f
9:00am  -   -   -  18 22 mph 1014.6mb 71f 73f
8:50am 7ft 7s 6s 16 20 mph 1014.8mb 71f 73f
8:40am  -   -   -  16 22 mph 1014.6mb 71f 73f
8:30am  -   -   -  16 20 mph 1014.6mb 71f 73f
8:20am  -   -   -  16 18 mph 1014.5mb 71f 73f
8:10am  -   -   -  16 20 mph 1014.5mb 71f 73f
8:00am  -   -   -  16 20 mph 1014.6mb 71f 73f
7:50am 6.5ft 8s 6s 16 20 mph 1014.6mb 71f 72f
7:40am  -   -   -  16 20 mph 1014.5mb 71f 72f
7:30am  -   -   -  18 22 mph 1014.4mb 71f 73f
7:20am  -   -   -  18 22 mph 1014.4mb 71f 72f
7:10am  -   -   -  18 22 mph 1014.3mb 71f 72f
7:00am  -   -   -  18 22 mph 1014.1mb 71f 72f
6:50am 6.5ft 7s 6s 16 20 mph 1014.1mb 71f 72f
6:40am 6.5ft  -  6s 16 20 mph 1014mb 71f 72f
6:30am  -   -   -  18 22 mph 1013.9mb 71f 72f
6:20am  -   -   -  16 22 mph 1013.6mb 71f 72f
6:10am  -   -   -  18 22 mph 1013.6mb 71f 72f
6:00am  -   -   -  16 20 mph 1013.5mb 71f 72f
5:50am 7ft 6s 6s 18 20 mph 1013.5mb 71f 72f
5:40am 7ft  -  6s 18 22 mph 1013.3mb 71f 72f
5:30am  -   -   -  18 25 mph 1013.3mb 71f 72f
5:20am  -   -   -  18 22 mph 1013mb 71f 72f
5:10am  -   -   -  20 25 mph 1012.9mb 71f 72f
5:00am  -   -   -  20 25 mph 1012.9mb 72f 72f
4:50am 6.5ft 7s 6s 20 25 mph 1012.9mb 72f 72f
4:40am  -   -   -  18 22 mph 1013mb 72f 72f
4:30am  -   -   -  18 25 mph 1013mb 72f 72f
4:20am  -   -   -  18 25 mph 1013mb 72f 72f
4:10am  -   -   -  18 25 mph 1013mb 72f 72f
4:00am  -   -   -  18 25 mph 1013mb 72f 72f
3:50am 7.5ft 7s 6s 20 25 mph 1013mb 72f 72f
3:40am 7.5ft  -  6s 20 25 mph 1013.1mb 72f 72f
3:30am  -   -   -  20 27 mph 1013mb 72f 72f
3:20am  -   -   -  20 27 mph 1013mb 72f 72f
3:10am  -   -   -  20 27 mph 1013mb 72f 72f
3:00am  -   -   -  20 25 mph 1013.1mb 72f 72f
2:50am 6.5ft  -  6s 18 25 mph 1013mb - 72f
2:40am 6.5ft 7s 6s  -  mph - 72f -
2:30am  -   -   -  20 25 mph 1013mb 72f 72f
2:20am  -   -   -  18 22 mph 1013mb 72f 72f
2:10am  -   -   -  20 27 mph 1013.1mb 72f 73f
2:00am  -   -   -  20 27 mph 1013.4mb 72f 73f
1:50am 7ft 7s 6s 20 25 mph 1013.5mb 72f 73f
1:40am 7ft  -  6s 20 25 mph 1013.5mb 72f 73f
1:30am  -   -   -  18 25 mph 1013.6mb 72f 73f
1:20am  -   -   -  20 22 mph 1013.9mb 72f 73f
1:10am  -   -   -  18 22 mph 1013.9mb 72f 73f
1:00am  -   -   -  18 22 mph 1013.8mb 72f 73f
12:50am 7ft 7s 6s 20 25 mph 1013.8mb 72f 73f
12:40am 7ft  -  6s 20 25 mph 1013.5mb 72f 73f
12:30am  -   -   -  18 25 mph 1013.8mb 72f 73f
12:20am  -   -   -  20 25 mph 1013.9mb 72f 73f
12:10am  -   -   -  20 22 mph 1013.5mb 72f 73f
12:00am  -   -   -  20 25 mph 1013.6mb 72f 73f
Sat 04/22 11:50pm 6.5ft 7s 6s 20 22 mph 1013.6mb 72f 73f
11:40pm  -   -   -  18 22 mph 1013.9mb 72f 73f
11:30pm  -   -   -  18 22 mph 1013.9mb 71f 73f
11:20pm  -   -   -  18 22 mph 1014mb 71f 73f
11:10pm  -   -   -  20 25 mph 1013.9mb 71f 73f
11:00pm  -   -   -  18 22 mph 1013.9mb 72f 73f
10:50pm 7.5ft 7s 6s 20 25 mph 1013.9mb 72f 73f
10:40pm  -   -   -  20 25 mph 1013.9mb 72f 73f
10:30pm  -   -   -  18 22 mph 1014mb 72f 73f
10:20pm  -   -   -  18 22 mph 1014mb 72f 73f
10:10pm  -   -   -  18 22 mph 1014mb 72f 73f
10:00pm  -   -   -  18 22 mph 1014mb 72f 73f
9:50pm 6.5ft 7s 6s 18 22 mph 1014mb 72f 73f
9:40pm  -   -   -  18 22 mph 1013.1mb 72f 73f
9:30pm 6.5ft  -  6s 16 22 mph 1013.9mb 72f 73f
9:20pm  -   -   -  16 20 mph 1013.9mb 72f 73f
9:10pm  -   -   -  16 22 mph 1013.9mb - 73f
9:00pm  -   -   -  18 20 mph 1013.9mb 72f 73f
8:40pm 7ft 7s 6s  -  mph - - -
8:30pm  -   -   -  16 22 mph 1013.9mb 72f 73f
8:20pm  -   -   -  18 22 mph 1013.8mb 72f 73f
8:10pm  -   -   -  18 20 mph 1013.9mb 72f 73f
8:00pm  -   -   -  18 22 mph 1013.9mb 72f 73f
7:50pm 6ft 8s 6s 16 20 mph 1013.8mb 72f 73f
7:40pm 6ft  -  6s 16 20 mph 1013.8mb 72f 73f
7:30pm  -   -   -  18 22 mph 1013.8mb 72f 73f
7:20pm  -   -   -  18 22 mph 1013.5mb 72f 73f
7:10pm  -   -   -  18 22 mph 1013.5mb 72f 73f
7:00pm  -   -   -  18 22 mph 1013.5mb 72f 73f
6:50pm 6ft 7s 6s 18 22 mph 1013.4mb 72f 73f
6:40pm  -   -   -  18 22 mph 1013.5mb 72f 73f
6:30pm  -   -   -  18 20 mph 1013.5mb 72f 73f
6:20pm  -   -   -  16 20 mph 1013.5mb 72f 73f
6:10pm  -   -   -  16 20 mph 1013.5mb 72f 73f
6:00pm  -   -   -  16 20 mph 1013.5mb 72f 73f
5:50pm 6.5ft 7s 6s 16 20 mph 1013.6mb 72f 73f
5:40pm  -   -   -  16 20 mph 1013.6mb 72f 73f
5:30pm  -   -   -  16 20 mph 1013.5mb 72f 73f
5:20pm  -   -   -  16 20 mph 1013.8mb 72f 73f
5:10pm  -   -   -  16 22 mph 1013.8mb 72f 73f
5:00pm  -   -   -  16 20 mph 1013.6mb 72f 73f
4:50pm 6.5ft 7s 6s 16 20 mph 1013.8mb 72f 73f
4:40pm  -   -   -  13 18 mph 1013.8mb 72f 73f
4:30pm  -   -   -  13 18 mph 1013.8mb 72f 73f
4:20pm  -   -   -  13 18 mph 1013.9mb 72f 73f
4:10pm  -   -   -  13 16 mph 1013.9mb 72f 73f
4:00pm  -   -   -  11 16 mph 1013.9mb 72f 73f
3:50pm 6ft 7s 6s 13 16 mph 1014mb 72f 73f
3:40pm  -   -   -  13 16 mph 1014mb 72f 73f
3:30pm  -   -   -  13 18 mph 1014mb 72f 73f
3:20pm  -   -   -  16 20 mph 1014mb 72f 73f
3:10pm  -   -   -  16 20 mph 1014.1mb 72f 73f
3:00pm  -   -   -  16 20 mph 1014.4mb 72f 73f
2:50pm 6ft 12s 6s 18 22 mph 1014.5mb 72f 73f
2:40pm  -   -   -  18 20 mph 1014.5mb 72f 73f
2:30pm  -   -   -  18 22 mph 1014.5mb 72f 73f
2:20pm  -   -   -  18 22 mph 1014.5mb 72f 73f
2:10pm  -   -   -  18 22 mph 1014.5mb 72f 73f
2:00pm  -   -   -  18 22 mph 1014.6mb 72f 73f
1:50pm 7ft 7s 6s 18 22 mph 1014.8mb 72f 73f
1:40pm 7ft  -  6s 18 22 mph 1014.6mb 72f 73f
1:30pm  -   -   -  18 22 mph 1014.6mb 72f 73f
1:20pm  -   -   -  18 22 mph 1014.6mb 72f 73f
1:10pm  -   -   -  18 22 mph 1014.8mb 72f 73f
1:00pm  -   -   -  18 22 mph 1014.6mb 72f 73f
12:50pm 6.5ft 7s 6s 18 22 mph 1014.8mb 72f 73f
12:40pm 6.5ft  -  6s 16 20 mph 1015mb 72f 73f
12:30pm  -   -   -  16 22 mph 1015mb 72f 73f
12:20pm  -   -   -  18 20 mph 1015mb 72f 73f
12:10pm  -   -   -  16 22 mph 1014.9mb 72f 73f
12:00pm  -   -   -  16 20 mph 1015mb 72f 73f
11:50am 6ft 13s 6s 16 18 mph 1015mb 72f 73f
11:40am  -   -   -  16 20 mph 1015mb 71f 73f
11:30am  -   -   -  16 20 mph 1015mb 71f 73f
11:20am  -   -   -  18 20 mph 1015mb 71f 73f
11:10am  -   -   -  16 20 mph 1015mb 71f 73f
11:00am  -   -   -  18 22 mph 1015mb 71f 73f
10:50am 6ft 11s 6s 16 20 mph 1015.1mb 71f 73f
10:40am 6ft  -  6s 16 20 mph 1015.3mb 71f 73f
10:30am  -   -   -  16 20 mph 1015.3mb 71f 73f
10:20am  -   -   -  16 20 mph 1015.3mb 71f 73f
10:10am  -   -   -  16 20 mph 1015.4mb 71f 73f
10:00am  -   -   -  16 20 mph 1015.4mb 71f 73f
9:50am 6ft 13s 6s 16 20 mph 1015.4mb 71f 73f
9:40am  -   -   -  16 20 mph 1015.3mb 71f 73f
9:30am  -   -   -  16 20 mph 1015.1mb 71f 73f
9:20am  -   -   -  16 18 mph 1015.1mb 71f 73f
9:10am  -   -   -  16 20 mph 1014.5mb 71f 73f
9:00am  -   -   -  16 20 mph 1015.1mb 71f 73f
8:50am 6ft 12s 6s 16 20 mph 1015.1mb 71f 73f
8:40am  -   -   -  16 20 mph 1015.1mb 71f 73f
8:30am  -   -   -  16 20 mph 1015.1mb 71f 73f
8:20am  -   -   -  16 20 mph 1015.1mb 71f 72f
8:10am  -   -   -  16 20 mph 1015.1mb 71f 72f
8:00am  -   -   -  18 20 mph 1015mb 71f 72f
7:50am 6ft 11s 6s 16 20 mph 1015.1mb 71f 72f
7:40am 6ft  -  6s 16 20 mph 1015mb 71f 72f
7:30am  -   -   -  18 20 mph 1015mb 71f 72f
7:20am  -   -   -  16 20 mph 1014.9mb 71f 72f
7:10am  -   -   -  18 22 mph 1014.6mb 71f 72f
7:00am  -   -   -  18 22 mph 1014.5mb 71f 72f
6:50am 5.5ft 6s 6s 18 22 mph 1014.5mb 71f 72f
6:40am 5.5ft  -  6s 18 22 mph 1014.4mb 71f 72f
6:30am  -   -   -  18 20 mph 1014.4mb 71f 72f
6:20am  -   -   -  16 20 mph 1014.4mb 71f 72f
6:10am  -   -   -  16 20 mph 1014.3mb 71f 72f
6:00am  -   -   -  16 20 mph 1014.1mb 71f 72f
5:50am 5.5ft 11s 6s 16 20 mph 1014mb 72f 72f
5:40am  -   -   -  16 20 mph 1014mb 72f 72f
5:30am  -   -   -  16 20 mph 1013.9mb 72f 72f
5:20am  -   -   -  18 22 mph 1013.6mb 72f 72f
5:10am  -   -   -  18 22 mph 1013.6mb 72f 72f
5:00am  -   -   -  18 20 mph 1013.5mb 72f 72f
4:50am 5ft 11s 6s 18 22 mph 1013.5mb 72f 72f
4:40am 5ft  -  6s 18 22 mph 1013.6mb 72f 72f
4:30am  -   -   -  18 22 mph 1013.6mb 72f 72f
4:20am  -   -   -  18 22 mph 1013.6mb 72f 72f
4:10am  -   -   -  18 22 mph 1013.6mb 72f 72f
4:00am  -   -   -  18 22 mph 1013.6mb 72f 72f
3:50am 5ft 12s 6s 18 22 mph 1013.8mb 72f 72f
3:40am 5ft  -  6s 18 22 mph 1013.8mb 72f 72f
3:30am  -   -   -  18 22 mph 1014mb 72f 72f
3:20am  -   -   -  18 22 mph 1014mb 72f 72f
3:10am  -   -   -  18 22 mph 1014mb 71f 72f
3:00am  -   -   -  18 22 mph 1014.1mb 71f 73f
2:50am 5ft 11s 6s 18 22 mph 1014.1mb 71f 73f
2:40am 5ft  -  6s 18 22 mph 1014.3mb 71f 73f
2:30am  -   -   -  18 20 mph 1014.5mb 71f 73f
2:20am  -   -   -  16 20 mph 1014.5mb 71f 73f
2:10am  -   -   -  16 20 mph 1014.6mb 71f 73f
2:00am  -   -   -  18 20 mph 1014.8mb 71f 73f
1:50am 4.5ft 12s 6s 16 20 mph 1015mb 71f 73f
1:40am 4.5ft  -  6s 16 20 mph 1015mb 71f 73f
1:30am  -   -   -  16 20 mph 1015.1mb 71f 73f
1:20am  -   -   -  16 22 mph 1015mb 71f 73f
1:10am  -   -   -  16 20 mph 1015.1mb 71f 73f
1:00am  -   -   -  18 20 mph 1015.3mb 71f 73f
12:50am 4.5ft 11s 6s 18 22 mph 1015.3mb 71f 73f
12:40am 4.5ft  -  6s 18 20 mph 1015.4mb 71f 73f
12:30am  -   -   -  16 20 mph 1015.4mb 71f 73f
12:20am  -   -   -  16 20 mph 1015.5mb 71f 73f
12:10am  -   -   -  16 20 mph 1015.5mb 71f 72f
12:00am  -   -   -  16 18 mph 1015.5mb 71f 72f
Fri 04/21 11:50pm 4.5ft 10s 6s 16 18 mph 1015.5mb 71f 73f
11:40pm  -   -   -  16 20 mph 1015.5mb 71f 73f
11:30pm  -   -   -  16 20 mph 1015.5mb 71f 73f
11:20pm  -   -   -  13 18 mph 1015.5mb 71f 73f
11:10pm  -   -   -  16 18 mph 1015.5mb 71f 72f
11:00pm  -   -   -  13 18 mph 1015.5mb 71f 72f
10:50pm 4.5ft 10s 6s 13 18 mph 1015.5mb 71f 73f
10:40pm  -   -   -  16 18 mph 1015.5mb 71f 73f